createdAt,value
2023-02-28T00:01:23.559Z,-4.20
2023-02-28T00:03:50.198Z,-4.27
2023-02-28T00:06:16.909Z,-3.53
2023-02-28T00:08:43.552Z,-3.86
2023-02-28T00:11:11.739Z,-3.75
2023-02-28T00:13:39.935Z,-3.84
2023-02-28T00:16:08.437Z,-4.27
2023-02-28T00:18:35.092Z,-4.59
2023-02-28T00:21:01.829Z,-5.00
2023-02-28T00:23:28.637Z,-4.66
2023-02-28T00:25:55.326Z,-4.26
2023-02-28T00:28:21.978Z,-4.55
2023-02-28T00:30:48.639Z,-4.66
2023-02-28T00:33:15.364Z,-3.99
2023-02-28T00:35:42.032Z,-3.78
2023-02-28T00:38:09.688Z,-3.63
2023-02-28T00:40:36.333Z,-3.66
2023-02-28T00:43:02.956Z,-4.25
2023-02-28T00:45:29.573Z,-3.81
2023-02-28T00:47:57.663Z,-3.69
2023-02-28T00:50:24.428Z,-3.68
2023-02-28T00:52:51.040Z,-3.68
2023-02-28T00:55:17.809Z,-3.90
2023-02-28T00:57:44.537Z,-3.95
2023-02-28T01:00:12.086Z,-4.01
2023-02-28T01:02:38.707Z,-4.06
2023-02-28T01:05:05.792Z,-3.95
2023-02-28T01:07:32.569Z,-3.66
2023-02-28T01:09:59.205Z,-3.96
2023-02-28T01:12:25.918Z,-3.80
2023-02-28T01:14:52.548Z,-3.71
2023-02-28T01:17:21.746Z,-3.53
2023-02-28T01:19:48.374Z,-3.69
2023-02-28T01:22:15.033Z,-4.08
2023-02-28T01:24:42.700Z,-4.55
2023-02-28T01:27:12.874Z,-4.34
2023-02-28T01:29:39.521Z,-4.29
2023-02-28T01:32:06.183Z,-4.69
2023-02-28T01:34:32.864Z,-5.02
2023-02-28T01:36:59.875Z,-4.97
2023-02-28T01:39:27.118Z,-4.89
2023-02-28T01:41:53.788Z,-4.50
2023-02-28T01:44:58.018Z,-4.24
2023-02-28T01:47:25.782Z,-4.36
2023-02-28T01:49:52.719Z,-4.30
2023-02-28T01:52:19.334Z,-3.91
2023-02-28T01:54:48.754Z,-3.63
2023-02-28T01:57:18.425Z,-3.60
2023-02-28T01:59:51.909Z,-4.30
2023-02-28T02:02:19.704Z,-4.58
2023-02-28T02:05:02.691Z,-5.00
2023-02-28T02:07:31.889Z,-5.20
2023-02-28T02:10:15.930Z,-5.24
2023-02-28T02:13:06.842Z,-5.41
2023-02-28T02:15:37.792Z,-5.09
2023-02-28T02:18:25.055Z,-4.82
2023-02-28T02:21:09.310Z,-4.44
2023-02-28T02:23:53.591Z,-4.72
2023-02-28T02:26:20.070Z,-4.72
2023-02-28T02:29:05.939Z,-4.39
2023-02-28T02:31:43.275Z,-4.62
2023-02-28T02:34:26.671Z,-4.39
2023-02-28T02:37:06.641Z,-4.61
2023-02-28T02:39:53.847Z,-4.23
2023-02-28T02:42:30.302Z,-4.64
2023-02-28T02:45:02.640Z,-4.69
2023-02-28T02:47:30.939Z,-4.25
2023-02-28T02:49:59.330Z,-4.60
2023-02-28T02:52:34.057Z,-4.54
2023-02-28T02:55:00.865Z,-4.32
2023-02-28T02:57:37.057Z,-4.01
2023-02-28T03:00:06.027Z,-3.92
2023-02-28T03:02:35.204Z,-3.90
2023-02-28T03:05:04.322Z,-3.73
2023-02-28T03:07:30.925Z,-3.88
2023-02-28T03:09:58.419Z,-3.65
2023-02-28T03:12:42.119Z,-3.82
2023-02-28T03:15:18.024Z,-3.84
2023-02-28T03:17:53.786Z,-3.79
2023-02-28T03:20:46.247Z,-3.94
2023-02-28T03:23:31.722Z,-4.01
2023-02-28T03:26:13.101Z,-4.00
2023-02-28T03:28:48.970Z,-3.72
2023-02-28T03:31:37.665Z,-3.64
2023-02-28T03:34:18.148Z,-3.69
2023-02-28T03:36:48.204Z,-4.11
2023-02-28T03:39:17.402Z,-4.26
2023-02-28T03:41:55.904Z,-4.15
2023-02-28T03:44:27.027Z,-3.93
2023-02-28T03:46:57.495Z,-4.07
2023-02-28T03:49:25.997Z,-4.04
2023-02-28T03:51:52.687Z,-3.89
2023-02-28T03:54:22.162Z,-4.03
2023-02-28T03:56:54.886Z,-3.91
2023-02-28T03:59:40.990Z,-3.89
2023-02-28T04:02:07.695Z,-3.76
2023-02-28T04:04:34.997Z,-3.88
2023-02-28T04:07:03.252Z,-3.94
2023-02-28T04:09:29.906Z,-3.82
2023-02-28T04:11:59.142Z,-3.71
2023-02-28T04:14:25.793Z,-3.80
2023-02-28T04:16:53.025Z,-3.84
2023-02-28T04:19:19.776Z,-3.76
2023-02-28T04:21:48.051Z,-3.75
2023-02-28T04:24:16.265Z,-3.61
2023-02-28T04:26:47.405Z,-3.51
2023-02-28T04:29:15.377Z,-3.27
2023-02-28T04:31:42.077Z,-3.66
2023-02-28T04:34:08.805Z,-3.83
2023-02-28T04:36:35.475Z,-3.83
2023-02-28T04:39:02.163Z,-3.77
2023-02-28T04:41:32.064Z,-3.73
2023-02-28T04:43:59.247Z,-3.68
2023-02-28T04:46:25.923Z,-3.64
2023-02-28T04:48:52.664Z,-3.64
2023-02-28T04:51:19.576Z,-3.69
2023-02-28T04:53:46.249Z,-3.68
2023-02-28T04:56:14.094Z,-3.65
2023-02-28T04:58:40.748Z,-3.64
2023-02-28T05:01:16.473Z,-3.65
2023-02-28T05:03:43.714Z,-3.65
2023-02-28T05:06:13.344Z,-3.65
2023-02-28T05:08:40.177Z,-3.72
2023-02-28T05:11:17.355Z,-3.79
2023-02-28T05:13:44.011Z,-3.94
2023-02-28T05:16:11.273Z,-3.98
2023-02-28T05:18:38.316Z,-4.04
2023-02-28T05:21:05.168Z,-4.09
2023-02-28T05:23:31.783Z,-4.16
2023-02-28T05:25:58.554Z,-4.29
2023-02-28T05:28:25.197Z,-4.24
2023-02-28T05:30:51.828Z,-4.38
2023-02-28T05:33:18.473Z,-4.29
2023-02-28T05:35:45.307Z,-4.46
2023-02-28T05:38:12.005Z,-4.48
2023-02-28T05:40:40.405Z,-4.39
2023-02-28T05:43:07.045Z,-4.39
2023-02-28T05:45:33.722Z,-4.29
2023-02-28T05:48:00.616Z,-4.31
2023-02-28T05:50:27.259Z,-4.38
2023-02-28T05:52:53.945Z,-4.40
2023-02-28T05:55:20.693Z,-4.36
2023-02-28T05:57:47.277Z,-4.07
2023-02-28T06:00:16.073Z,-4.06
2023-02-28T06:02:42.692Z,-4.05
2023-02-28T06:05:14.143Z,-4.17
2023-02-28T06:07:40.804Z,-4.26
2023-02-28T06:10:07.858Z,-4.49
2023-02-28T06:12:34.476Z,-4.73
2023-02-28T06:15:01.097Z,-4.90
2023-02-28T06:17:27.777Z,-4.89
2023-02-28T06:19:54.375Z,-4.86
2023-02-28T06:22:21.065Z,-4.84
2023-02-28T06:24:47.755Z,-4.87
2023-02-28T06:27:14.594Z,-4.83
2023-02-28T06:29:41.323Z,-4.59
2023-02-28T06:32:08.176Z,-4.78
2023-02-28T06:34:37.747Z,-4.72
2023-02-28T06:37:04.442Z,-4.96
2023-02-28T06:39:31.584Z,-4.64
2023-02-28T06:41:58.577Z,-4.76
2023-02-28T06:44:25.368Z,-4.91
2023-02-28T06:46:52.004Z,-4.75
2023-02-28T06:49:18.622Z,-4.84
2023-02-28T06:51:48.709Z,-5.00
2023-02-28T06:54:15.314Z,-4.82
2023-02-28T06:56:42.029Z,-4.72
2023-02-28T06:59:08.723Z,-4.58
2023-02-28T07:01:35.429Z,-4.47
2023-02-28T07:04:02.105Z,-4.52
2023-02-28T07:06:28.932Z,-4.40
2023-02-28T07:08:55.730Z,-4.36
2023-02-28T07:11:23.696Z,-4.48
2023-02-28T07:13:51.925Z,-4.47
2023-02-28T07:16:18.839Z,-4.34
2023-02-28T07:18:45.545Z,-4.34
2023-02-28T07:21:12.490Z,-4.48
2023-02-28T07:23:39.621Z,-4.46
2023-02-28T07:26:06.987Z,-4.34
2023-02-28T07:28:33.658Z,-4.20
2023-02-28T07:31:07.184Z,-4.10
2023-02-28T07:33:34.978Z,-4.19
2023-02-28T07:36:06.013Z,-4.15
2023-02-28T07:38:35.174Z,-3.87
2023-02-28T07:41:01.787Z,-4.04
2023-02-28T07:43:28.435Z,-3.78
2023-02-28T07:45:55.029Z,-3.77
2023-02-28T07:48:21.670Z,-3.83
2023-02-28T07:50:56.498Z,-3.73
2023-02-28T07:53:23.331Z,-3.87
2023-02-28T07:55:50.072Z,-3.78
2023-02-28T07:58:16.740Z,-3.64
2023-02-28T08:00:43.385Z,-3.56
2023-02-28T08:03:12.982Z,-3.57
2023-02-28T08:05:41.185Z,-3.57
2023-02-28T08:08:10.612Z,-3.63
2023-02-28T08:10:37.454Z,-3.62
2023-02-28T08:13:04.128Z,-3.41
2023-02-28T08:15:30.801Z,-3.35
2023-02-28T08:17:57.669Z,-3.26
2023-02-28T08:20:25.092Z,-3.16
2023-02-28T08:22:51.723Z,-3.20
2023-02-28T08:25:18.794Z,-3.11
2023-02-28T08:27:45.475Z,-3.08
2023-02-28T08:30:13.118Z,-2.92
2023-02-28T08:32:40.183Z,-2.90
2023-02-28T08:35:07.326Z,-2.91
2023-02-28T08:37:34.052Z,-2.86
2023-02-28T08:40:00.690Z,-2.87
2023-02-28T08:42:27.652Z,-2.76
2023-02-28T08:44:54.244Z,-2.79
2023-02-28T08:47:21.002Z,-2.62
2023-02-28T08:49:47.674Z,-2.56
2023-02-28T08:52:14.405Z,-2.53
2023-02-28T08:54:41.120Z,-2.52
2023-02-28T08:57:07.703Z,-2.42
2023-02-28T08:59:34.391Z,-2.32
2023-02-28T09:02:04.177Z,-2.24
2023-02-28T09:04:32.074Z,-2.03
2023-02-28T09:06:58.742Z,-1.59
2023-02-28T09:09:25.375Z,-1.54
2023-02-28T09:11:52.001Z,-1.43
2023-02-28T09:14:18.815Z,-1.35
2023-02-28T09:16:45.541Z,-1.55
2023-02-28T09:19:14.244Z,-1.57
2023-02-28T09:21:40.995Z,-1.23
2023-02-28T09:24:08.159Z,-1.31
2023-02-28T09:26:42.682Z,-1.30
2023-02-28T09:29:10.168Z,-1.14
2023-02-28T09:31:36.756Z,-0.98
2023-02-28T09:34:04.629Z,-1.23
2023-02-28T09:36:43.575Z,-1.01
2023-02-28T09:39:11.382Z,-1.16
2023-02-28T09:41:48.452Z,-0.98
2023-02-28T09:44:20.318Z,-0.97
2023-02-28T09:46:49.084Z,-0.88
2023-02-28T09:49:19.799Z,-0.87
2023-02-28T09:51:56.627Z,-0.64
2023-02-28T09:54:24.712Z,-0.63
2023-02-28T09:56:54.268Z,-0.66
2023-02-28T09:59:33.653Z,-0.53
2023-02-28T10:02:21.532Z,-0.31
2023-02-28T10:04:53.772Z,-0.34
2023-02-28T10:07:41.832Z,-0.23
2023-02-28T10:10:23.145Z,-0.59
2023-02-28T10:12:49.750Z,-0.61
2023-02-28T10:15:17.014Z,-0.36
2023-02-28T10:17:55.145Z,-0.46
2023-02-28T10:20:32.298Z,-0.06
2023-02-28T10:23:25.293Z,0.02
2023-02-28T10:26:02.564Z,0.01
2023-02-28T10:28:30.183Z,0.22
2023-02-28T10:30:56.948Z,0.12
2023-02-28T10:33:30.420Z,0.14
2023-02-28T10:35:57.197Z,0.18
2023-02-28T10:38:27.029Z,0.21
2023-02-28T10:40:53.710Z,-0.05
2023-02-28T10:43:22.157Z,-0.27
2023-02-28T10:46:10.748Z,-0.08
2023-02-28T10:48:45.345Z,-0.28
2023-02-28T10:51:13.204Z,0.00
2023-02-28T10:54:01.238Z,0.11
2023-02-28T10:56:28.581Z,-0.30
2023-02-28T10:59:03.783Z,0.25
2023-02-28T11:01:41.414Z,0.29
2023-02-28T11:04:23.906Z,0.57
2023-02-28T11:07:03.996Z,0.46
2023-02-28T11:09:39.750Z,0.21
2023-02-28T11:12:22.804Z,0.61
2023-02-28T11:14:54.521Z,0.16
2023-02-28T11:17:23.085Z,-0.06
2023-02-28T11:19:52.340Z,-0.19
2023-02-28T11:22:24.270Z,0.41
2023-02-28T11:24:54.574Z,0.60
2023-02-28T11:27:34.875Z,0.42
2023-02-28T11:30:01.933Z,0.72
2023-02-28T11:32:30.084Z,0.61
2023-02-28T11:35:25.913Z,0.48
2023-02-28T11:37:52.771Z,0.49
2023-02-28T11:40:22.111Z,0.46
2023-02-28T11:42:52.606Z,0.49
2023-02-28T11:45:31.833Z,0.48
2023-02-28T11:48:16.819Z,0.28
2023-02-28T11:50:58.442Z,0.58
2023-02-28T11:53:43.117Z,0.72
2023-02-28T11:56:46.681Z,0.61
2023-02-28T11:59:25.810Z,0.58
2023-02-28T12:02:07.434Z,0.76
2023-02-28T12:04:48.580Z,0.65
2023-02-28T12:07:21.274Z,0.96
2023-02-28T12:09:51.438Z,1.03
2023-02-28T12:12:39.340Z,1.15
2023-02-28T12:15:23.867Z,1.26
2023-02-28T12:18:02.646Z,1.32
2023-02-28T12:20:38.366Z,1.43
2023-02-28T12:23:12.001Z,1.20
2023-02-28T12:25:45.866Z,1.32
2023-02-28T12:32:31.453Z,2.04
2023-02-28T12:35:47.656Z,1.11
2023-02-28T12:38:20.457Z,1.74
2023-02-28T12:40:55.119Z,0.94
2023-02-28T12:43:22.306Z,0.77
2023-02-28T12:45:57.023Z,0.95
2023-02-28T12:48:51.970Z,0.76
2023-02-28T12:51:18.611Z,0.89
2023-02-28T12:54:06.858Z,0.67
2023-02-28T12:56:49.579Z,0.44
2023-02-28T12:59:41.291Z,0.51
2023-02-28T13:02:26.854Z,0.73
2023-02-28T13:05:09.322Z,0.94
2023-02-28T13:07:53.166Z,1.00
2023-02-28T13:10:19.928Z,0.52
2023-02-28T13:12:50.994Z,0.57
2023-02-28T13:15:22.358Z,0.68
2023-02-28T13:17:54.021Z,0.51
2023-02-28T13:20:22.562Z,0.38
2023-02-28T13:22:50.436Z,0.50
2023-02-28T13:25:23.205Z,0.54
2023-02-28T13:27:55.551Z,0.69
2023-02-28T13:30:53.499Z,0.61
2023-02-28T13:33:35.916Z,0.35
2023-02-28T13:36:10.637Z,0.49
2023-02-28T13:38:41.905Z,0.34
2023-02-28T13:41:30.377Z,0.27
2023-02-28T13:44:13.611Z,0.51
2023-02-28T13:46:49.630Z,0.34
2023-02-28T13:49:37.876Z,0.42
2023-02-28T13:52:07.509Z,0.17
2023-02-28T13:54:51.821Z,0.12
2023-02-28T13:57:52.786Z,0.11
2023-02-28T14:00:38.045Z,0.16
2023-02-28T14:03:48.178Z,0.24
2023-02-28T14:06:17.971Z,0.29
2023-02-28T14:09:27.220Z,0.40
2023-02-28T14:11:54.047Z,0.18
2023-02-28T14:14:35.925Z,0.18
2023-02-28T14:17:03.607Z,0.20
2023-02-28T14:19:31.302Z,0.30
2023-02-28T14:22:43.662Z,0.22
2023-02-28T14:25:36.451Z,0.41
2023-02-28T14:28:27.247Z,0.32
2023-02-28T14:31:02.529Z,0.28
2023-02-28T14:34:00.439Z,0.33
2023-02-28T14:36:34.477Z,0.25
2023-02-28T14:39:02.726Z,0.34
2023-02-28T14:41:36.322Z,0.26
2023-02-28T14:44:03.421Z,0.23
2023-02-28T14:46:38.034Z,0.36
2023-02-28T14:49:13.640Z,0.19
2023-02-28T14:51:40.268Z,0.11
2023-02-28T14:54:06.959Z,0.22
2023-02-28T14:56:38.125Z,0.16
2023-02-28T14:59:04.955Z,0.21
2023-02-28T15:01:33.135Z,0.21
2023-02-28T15:04:04.990Z,0.01
2023-02-28T15:06:32.081Z,0.01
2023-02-28T15:09:27.912Z,0.01
2023-02-28T15:11:54.485Z,0.12
2023-02-28T15:14:21.732Z,-0.02
2023-02-28T15:17:01.151Z,0.06
2023-02-28T15:19:36.061Z,-0.07
2023-02-28T15:22:07.656Z,-0.16
2023-02-28T15:24:46.187Z,-0.15
2023-02-28T15:27:15.529Z,-0.12
2023-02-28T15:29:51.868Z,-0.16
2023-02-28T15:33:23.805Z,-0.19
2023-02-28T15:35:50.599Z,-0.23
2023-02-28T15:38:24.868Z,-0.37
2023-02-28T15:40:58.750Z,-0.20
2023-02-28T15:43:38.273Z,-0.32
2023-02-28T15:46:16.850Z,-0.33
2023-02-28T15:48:45.367Z,-0.22
2023-02-28T15:51:18.858Z,-0.41
2023-02-28T15:53:51.540Z,-0.49
2023-02-28T15:56:28.609Z,-0.50
2023-02-28T15:58:56.686Z,-0.35
2023-02-28T16:01:29.542Z,-0.37
2023-02-28T16:03:58.406Z,-0.55
2023-02-28T16:06:48.514Z,-0.53
2023-02-28T16:09:17.216Z,-0.56
2023-02-28T16:11:49.260Z,-0.52
2023-02-28T16:14:20.778Z,-0.70
2023-02-28T16:16:50.091Z,-0.73
2023-02-28T16:19:16.953Z,-0.85
2023-02-28T16:21:43.585Z,-0.80
2023-02-28T16:24:10.245Z,-0.83
2023-02-28T16:26:38.368Z,-0.81
2023-02-28T16:29:05.054Z,-0.96
2023-02-28T16:31:32.217Z,-0.94
2023-02-28T16:33:59.098Z,-1.11
2023-02-28T16:36:29.227Z,-0.94
2023-02-28T16:38:56.057Z,-1.05
2023-02-28T16:41:25.320Z,-1.10
2023-02-28T16:43:53.798Z,-1.28
2023-02-28T16:46:20.824Z,-1.18
2023-02-28T16:48:49.610Z,-1.25
2023-02-28T16:51:16.551Z,-1.30
2023-02-28T16:53:43.561Z,-1.29
2023-02-28T16:56:21.262Z,-1.44
2023-02-28T16:58:48.112Z,-1.39
2023-02-28T17:01:15.136Z,-1.61
2023-02-28T17:03:41.916Z,-1.56
2023-02-28T17:06:23.102Z,-1.55
2023-02-28T17:08:50.602Z,-1.72
2023-02-28T17:11:17.606Z,-1.73
2023-02-28T17:13:44.436Z,-1.84
2023-02-28T17:16:30.918Z,-1.87
2023-02-28T17:19:02.795Z,-1.78
2023-02-28T17:21:29.740Z,-1.77
2023-02-28T17:23:56.978Z,-1.86
2023-02-28T17:26:25.935Z,-1.88
2023-02-28T17:28:58.852Z,-1.92
2023-02-28T17:31:26.543Z,-1.96
2023-02-28T17:33:53.999Z,-1.98
2023-02-28T17:36:28.776Z,-1.97
2023-02-28T17:38:59.530Z,-2.00
2023-02-28T17:41:27.524Z,-1.99
2023-02-28T17:43:54.140Z,-1.89
2023-02-28T17:46:22.149Z,-1.94
2023-02-28T17:48:49.705Z,-1.91
2023-02-28T17:51:16.496Z,-1.97
2023-02-28T17:53:43.176Z,-1.96
2023-02-28T17:56:14.420Z,-1.96
2023-02-28T17:58:41.023Z,-1.91
2023-02-28T18:01:07.846Z,-1.91
2023-02-28T18:03:34.509Z,-1.98
2023-02-28T18:06:01.616Z,-2.01
2023-02-28T18:08:30.354Z,-1.78
2023-02-28T18:10:56.989Z,-1.76
2023-02-28T18:13:23.758Z,-1.91
2023-02-28T18:15:50.502Z,-1.79
2023-02-28T18:18:17.186Z,-1.80
2023-02-28T18:20:43.828Z,-1.75
2023-02-28T18:23:10.533Z,-1.69
2023-02-28T18:25:38.779Z,-1.86
2023-02-28T18:28:05.653Z,-1.84
2023-02-28T18:30:33.339Z,-2.01
2023-02-28T18:33:00.369Z,-1.93
2023-02-28T18:35:36.576Z,-1.90
2023-02-28T18:38:15.700Z,-1.83
2023-02-28T18:40:42.680Z,-1.61
2023-02-28T18:43:09.679Z,-1.40
2023-02-28T18:45:38.511Z,-1.51
2023-02-28T18:48:05.667Z,-1.49
2023-02-28T18:50:32.401Z,-1.51
2023-02-28T18:52:59.260Z,-1.35
2023-02-28T18:55:27.958Z,-1.49
2023-02-28T18:57:54.626Z,-1.79
2023-02-28T19:00:22.683Z,-1.58
2023-02-28T19:02:50.547Z,-2.57
2023-02-28T19:05:17.780Z,-2.67
2023-02-28T19:07:44.719Z,-2.80
2023-02-28T19:10:11.885Z,-2.60
2023-02-28T19:12:38.687Z,-2.64
2023-02-28T19:15:06.734Z,-2.91
2023-02-28T19:17:33.772Z,-2.87
2023-02-28T19:20:00.463Z,-2.39
2023-02-28T19:22:27.184Z,-2.41
2023-02-28T19:24:53.843Z,-2.47
2023-02-28T19:27:23.561Z,-2.88
2023-02-28T19:29:51.108Z,-2.38
2023-02-28T19:32:18.514Z,-2.09
2023-02-28T19:34:45.303Z,-2.08
2023-02-28T19:37:11.928Z,-2.28
2023-02-28T19:39:44.230Z,-2.72
2023-02-28T19:42:15.696Z,-2.86
2023-02-28T19:44:42.371Z,-2.42
2023-02-28T19:47:09.061Z,-2.51
2023-02-28T19:49:35.874Z,-2.13
2023-02-28T19:52:02.942Z,-2.34
2023-02-28T19:54:29.908Z,-1.90
2023-02-28T19:56:58.321Z,-1.75
2023-02-28T19:59:36.032Z,-3.31
2023-02-28T20:02:05.913Z,-3.16
2023-02-28T20:04:32.620Z,-2.83
2023-02-28T20:06:59.340Z,-2.58
2023-02-28T20:09:29.876Z,-2.94
2023-02-28T20:11:59.411Z,-2.87
2023-02-28T20:14:26.542Z,-2.98
2023-02-28T20:16:53.265Z,-3.24
2023-02-28T20:19:19.885Z,-3.69
2023-02-28T20:21:46.821Z,-3.62
2023-02-28T20:24:13.686Z,-3.18
2023-02-28T20:26:40.869Z,-3.07
2023-02-28T20:29:07.813Z,-3.02
2023-02-28T20:31:34.851Z,-2.80
2023-02-28T20:34:01.445Z,-3.19
2023-02-28T20:36:28.139Z,-3.16
2023-02-28T20:38:54.896Z,-2.96
2023-02-28T20:41:21.707Z,-3.03
2023-02-28T20:43:53.310Z,-2.96
2023-02-28T20:46:20.049Z,-2.80
2023-02-28T20:48:46.755Z,-2.91
2023-02-28T20:51:13.409Z,-2.81
2023-02-28T20:53:40.039Z,-2.88
2023-02-28T20:56:09.040Z,-2.86
2023-02-28T20:58:38.009Z,-2.94
2023-02-28T21:01:18.515Z,-3.22
2023-02-28T21:03:46.589Z,-3.55
2023-02-28T21:06:13.723Z,-4.12
2023-02-28T21:08:40.469Z,-3.61
2023-02-28T21:11:11.201Z,-3.45
2023-02-28T21:13:37.937Z,-3.07
2023-02-28T21:16:06.037Z,-2.90
2023-02-28T21:18:36.133Z,-3.19
2023-02-28T21:21:07.524Z,-3.08
2023-02-28T21:23:34.242Z,-3.32
2023-02-28T21:26:11.395Z,-3.42
2023-02-28T21:28:38.708Z,-3.14
2023-02-28T21:31:07.008Z,-3.40
2023-02-28T21:33:34.144Z,-3.90
2023-02-28T21:36:10.609Z,-4.56
2023-02-28T21:38:37.701Z,-3.85
2023-02-28T21:41:08.484Z,-4.23
2023-02-28T21:43:35.181Z,-4.95
2023-02-28T21:46:09.180Z,-4.74
2023-02-28T21:48:35.885Z,-4.32
2023-02-28T21:51:07.216Z,-4.78
2023-02-28T21:53:35.220Z,-4.48
2023-02-28T21:56:12.876Z,-4.38
2023-02-28T21:58:39.494Z,-4.80
2023-02-28T22:01:22.204Z,-4.94
2023-02-28T22:03:49.401Z,-4.65
2023-02-28T22:06:23.927Z,-4.88
2023-02-28T22:08:52.775Z,-4.71
2023-02-28T22:11:19.539Z,-4.52
2023-02-28T22:13:46.219Z,-5.19
2023-02-28T22:16:17.498Z,-5.10
2023-02-28T22:18:44.345Z,-4.98
2023-02-28T22:21:11.455Z,-4.91
2023-02-28T22:23:38.468Z,-4.74
2023-02-28T22:26:07.144Z,-4.93
2023-02-28T22:28:33.858Z,-5.03
2023-02-28T22:31:00.577Z,-4.82
2023-02-28T22:33:27.454Z,-4.76
2023-02-28T22:35:54.274Z,-4.86
2023-02-28T22:38:20.980Z,-5.26
2023-02-28T22:40:47.588Z,-5.09
2023-02-28T22:43:14.199Z,-5.37
2023-02-28T22:45:40.957Z,-5.66
2023-02-28T22:48:08.324Z,-6.16
2023-02-28T22:50:35.000Z,-6.05
2023-02-28T22:53:01.677Z,-5.45
2023-02-28T22:55:28.327Z,-5.48
2023-02-28T22:57:55.189Z,-5.54
2023-02-28T23:00:22.062Z,-5.41
2023-02-28T23:02:48.685Z,-5.17
2023-02-28T23:05:15.602Z,-5.34
2023-02-28T23:07:42.323Z,-5.92
2023-02-28T23:10:11.453Z,-5.98
2023-02-28T23:12:38.361Z,-6.11
2023-02-28T23:15:05.338Z,-5.60
2023-02-28T23:17:32.205Z,-5.46
2023-02-28T23:19:58.797Z,-5.19
2023-02-28T23:22:25.450Z,-5.01
2023-02-28T23:24:53.213Z,-5.11
2023-02-28T23:27:19.845Z,-5.13
2023-02-28T23:29:46.463Z,-5.17
2023-02-28T23:32:13.203Z,-5.22
2023-02-28T23:34:39.962Z,-5.29
2023-02-28T23:37:06.637Z,-5.60
2023-02-28T23:39:33.566Z,-5.54
2023-02-28T23:42:00.290Z,-5.26
2023-02-28T23:44:26.890Z,-4.97
2023-02-28T23:46:53.712Z,-4.85
2023-02-28T23:49:20.477Z,-5.13
2023-02-28T23:51:49.374Z,-5.26
2023-02-28T23:54:17.421Z,-5.27
2023-02-28T23:56:44.201Z,-5.18
2023-02-28T23:59:11.314Z,-5.01
